createdAt,value
2023-04-23T00:00:26.188Z,378
2023-04-23T00:01:27.456Z,382
2023-04-23T00:02:24.435Z,386
2023-04-23T00:03:23.834Z,383
2023-04-23T00:04:24.331Z,376
2023-04-23T00:05:24.263Z,379
2023-04-23T00:06:24.088Z,385
2023-04-23T00:07:23.600Z,375
2023-04-23T00:08:24.470Z,366
2023-04-23T00:09:24.811Z,372
2023-04-23T00:10:24.614Z,375
2023-04-23T00:11:24.297Z,369
2023-04-23T00:13:23.475Z,379
2023-04-23T00:14:24.225Z,378
2023-04-23T00:15:24.300Z,383
2023-04-23T00:16:24.101Z,382
2023-04-23T00:17:23.962Z,375
2023-04-23T00:18:23.521Z,380
2023-04-23T00:19:24.203Z,372
2023-04-23T00:20:24.302Z,374
2023-04-23T00:21:23.685Z,373
2023-04-23T00:22:24.321Z,377
2023-04-23T00:23:24.059Z,372
2023-04-23T00:24:24.507Z,371
2023-04-23T00:26:24.088Z,374
2023-04-23T00:28:23.689Z,371
2023-04-23T00:29:24.134Z,378
2023-04-23T00:30:24.154Z,375
2023-04-23T00:31:23.704Z,380
2023-04-23T00:32:28.686Z,388
2023-04-23T00:33:23.796Z,379
2023-04-23T00:34:24.248Z,376
2023-04-23T00:35:24.252Z,372
2023-04-23T00:37:23.893Z,377
2023-04-23T00:38:24.405Z,373
2023-04-23T00:40:24.294Z,374
2023-04-23T00:41:23.410Z,379
2023-04-23T00:42:23.661Z,383
2023-04-23T00:43:23.456Z,372
2023-04-23T00:44:23.815Z,371
2023-04-23T00:45:23.446Z,378
2023-04-23T00:46:24.429Z,373
2023-04-23T00:47:24.194Z,372
2023-04-23T00:48:23.788Z,373
2023-04-23T00:49:23.601Z,370
2023-04-23T00:50:24.358Z,365
2023-04-23T00:51:23.603Z,362
2023-04-23T00:52:24.058Z,359
2023-04-23T00:53:24.053Z,364
2023-04-23T00:55:23.413Z,361
2023-04-23T00:56:23.756Z,367
2023-04-23T00:58:24.163Z,370
2023-04-23T00:59:23.476Z,364
2023-04-23T01:00:24.946Z,360
2023-04-23T01:01:23.836Z,376
2023-04-23T01:02:42.966Z,368
2023-04-23T01:04:24.551Z,370
2023-04-23T01:05:23.702Z,368
2023-04-23T01:06:24.177Z,367
2023-04-23T01:08:24.145Z,370
2023-04-23T01:09:23.411Z,374
2023-04-23T01:10:24.288Z,371
2023-04-23T01:11:24.387Z,369
2023-04-23T01:12:23.836Z,362
2023-04-23T01:13:23.993Z,365
2023-04-23T01:14:24.179Z,370
2023-04-23T01:15:24.284Z,371
2023-04-23T01:16:24.056Z,370
2023-04-23T01:17:24.031Z,362
2023-04-23T01:18:23.907Z,369
2023-04-23T01:19:24.636Z,371
2023-04-23T01:20:23.749Z,386
2023-04-23T01:21:24.260Z,374
2023-04-23T01:22:23.988Z,368
2023-04-23T01:23:23.836Z,383
2023-04-23T01:24:24.356Z,377
2023-04-23T01:25:24.330Z,371
2023-04-23T01:26:24.063Z,366
2023-04-23T01:27:23.576Z,370
2023-04-23T01:28:24.472Z,381
2023-04-23T01:30:24.748Z,382
2023-04-23T01:31:23.580Z,379
2023-04-23T01:32:24.491Z,377
2023-04-23T01:34:24.285Z,374
2023-04-23T01:35:23.660Z,377
2023-04-23T01:36:23.723Z,364
2023-04-23T01:37:24.442Z,363
2023-04-23T01:38:24.409Z,371
2023-04-23T01:39:24.079Z,383
2023-04-23T01:40:23.780Z,378
2023-04-23T01:41:23.941Z,370
2023-04-23T01:42:24.330Z,359
2023-04-23T01:43:24.046Z,361
2023-04-23T01:44:23.604Z,373
2023-04-23T01:45:24.519Z,370
2023-04-23T01:46:24.215Z,369
2023-04-23T01:47:24.081Z,370
2023-04-23T01:48:24.334Z,378
2023-04-23T01:49:24.058Z,375
2023-04-23T01:50:23.850Z,371
2023-04-23T01:51:24.061Z,366
2023-04-23T01:52:23.743Z,373
2023-04-23T01:53:24.126Z,384
2023-04-23T01:54:23.853Z,376
2023-04-23T01:55:24.015Z,373
2023-04-23T01:56:24.324Z,367
2023-04-23T01:57:24.428Z,362
2023-04-23T01:59:24.186Z,364
2023-04-23T02:00:25.263Z,373
2023-04-23T02:01:24.107Z,369
2023-04-23T02:02:24.027Z,361
2023-04-23T02:03:24.243Z,352
2023-04-23T02:05:24.156Z,366
2023-04-23T02:06:23.978Z,378
2023-04-23T02:07:23.646Z,369
2023-04-23T02:08:24.156Z,371
2023-04-23T02:09:24.108Z,365
2023-04-23T02:10:23.873Z,357
2023-04-23T02:11:23.268Z,364
2023-04-23T02:12:23.557Z,373
2023-04-23T02:13:23.961Z,379
2023-04-23T02:14:23.474Z,374
2023-04-23T02:15:24.924Z,369
2023-04-23T02:16:23.845Z,373
2023-04-23T02:17:24.766Z,377
2023-04-23T02:18:23.741Z,380
2023-04-23T02:19:24.087Z,383
2023-04-23T02:20:23.942Z,368
2023-04-23T02:22:23.652Z,364
2023-04-23T02:23:24.223Z,359
2023-04-23T02:24:23.477Z,363
2023-04-23T02:25:24.142Z,370
2023-04-23T02:26:23.664Z,367
2023-04-23T02:27:24.316Z,364
2023-04-23T02:28:23.812Z,372
2023-04-23T02:29:24.221Z,369
2023-04-23T02:30:24.000Z,368
2023-04-23T02:31:23.464Z,361
2023-04-23T02:32:24.016Z,367
2023-04-23T02:33:23.372Z,365
2023-04-23T02:34:23.959Z,367
2023-04-23T02:35:24.098Z,366
2023-04-23T02:36:23.759Z,367
2023-04-23T02:37:23.845Z,379
2023-04-23T02:38:24.254Z,367
2023-04-23T02:40:23.848Z,372
2023-04-23T02:41:24.346Z,365
2023-04-23T02:42:24.001Z,361
2023-04-23T02:43:24.625Z,370
2023-04-23T02:44:24.355Z,377
2023-04-23T02:45:23.795Z,367
2023-04-23T02:46:24.166Z,366
2023-04-23T02:47:23.755Z,370
2023-04-23T02:48:24.639Z,371
2023-04-23T02:49:24.624Z,369
2023-04-23T02:51:23.857Z,374
2023-04-23T02:52:23.988Z,370
2023-04-23T02:53:23.602Z,367
2023-04-23T02:54:23.719Z,369
2023-04-23T02:55:23.986Z,361
2023-04-23T02:56:23.332Z,358
2023-04-23T02:57:23.711Z,363
2023-04-23T02:58:24.138Z,371
2023-04-23T02:59:23.824Z,365
2023-04-23T03:00:25.039Z,361
2023-04-23T03:01:25.022Z,375
2023-04-23T03:02:24.248Z,374
2023-04-23T03:03:29.545Z,366
2023-04-23T03:04:24.311Z,377
2023-04-23T03:05:24.512Z,366
2023-04-23T03:07:24.227Z,378
2023-04-23T03:08:24.057Z,367
2023-04-23T03:09:23.746Z,369
2023-04-23T03:10:24.142Z,371
2023-04-23T03:11:24.036Z,363
2023-04-23T03:12:23.939Z,370
2023-04-23T03:13:24.613Z,368
2023-04-23T03:14:23.944Z,373
2023-04-23T03:15:24.407Z,378
2023-04-23T03:16:24.008Z,372
2023-04-23T03:17:24.291Z,386
2023-04-23T03:18:23.987Z,377
2023-04-23T03:19:23.953Z,365
2023-04-23T03:20:23.807Z,357
2023-04-23T03:21:24.326Z,356
2023-04-23T03:22:24.058Z,352
2023-04-23T03:24:23.809Z,367
2023-04-23T03:25:24.332Z,375
2023-04-23T03:26:23.988Z,360
2023-04-23T03:27:24.174Z,362
2023-04-23T03:28:23.999Z,365
2023-04-23T03:29:24.505Z,363
2023-04-23T03:30:24.299Z,370
2023-04-23T03:31:23.799Z,364
2023-04-23T03:32:23.559Z,358
2023-04-23T03:33:24.499Z,352
2023-04-23T03:34:24.057Z,363
2023-04-23T03:35:24.037Z,358
2023-04-23T03:36:23.676Z,362
2023-04-23T03:37:24.066Z,366
2023-04-23T03:38:24.114Z,357
2023-04-23T03:39:23.843Z,360
2023-04-23T03:40:24.519Z,355
2023-04-23T03:41:24.299Z,358
2023-04-23T03:42:24.265Z,354
2023-04-23T03:43:23.928Z,358
2023-04-23T03:44:24.455Z,359
2023-04-23T03:46:23.517Z,360
2023-04-23T03:47:24.023Z,353
2023-04-23T03:48:23.677Z,359
2023-04-23T03:49:23.962Z,358
2023-04-23T03:51:23.848Z,363
2023-04-23T03:52:23.981Z,353
2023-04-23T03:53:23.250Z,356
2023-04-23T03:54:23.647Z,366
2023-04-23T03:55:24.679Z,367
2023-04-23T03:56:24.534Z,358
2023-04-23T03:58:23.942Z,365
2023-04-23T03:59:23.700Z,360
2023-04-23T04:00:25.656Z,350
2023-04-23T04:01:23.592Z,348
2023-04-23T04:02:24.378Z,359
2023-04-23T04:03:24.418Z,367
2023-04-23T04:04:24.225Z,370
2023-04-23T04:05:24.694Z,368
2023-04-23T04:06:23.801Z,369
2023-04-23T04:07:24.272Z,368
2023-04-23T04:08:23.590Z,375
2023-04-23T04:09:23.924Z,373
2023-04-23T04:10:24.418Z,359
2023-04-23T04:11:23.566Z,364
2023-04-23T04:12:23.769Z,365
2023-04-23T04:13:24.039Z,348
2023-04-23T04:14:23.866Z,351
2023-04-23T04:15:23.902Z,357
2023-04-23T04:16:24.124Z,356
2023-04-23T04:17:23.496Z,353
2023-04-23T04:18:24.142Z,350
2023-04-23T04:19:23.642Z,359
2023-04-23T04:20:24.168Z,361
2023-04-23T04:21:24.040Z,356
2023-04-23T04:22:23.798Z,361
2023-04-23T04:23:24.483Z,362
2023-04-23T04:24:25.690Z,364
2023-04-23T04:25:24.140Z,373
2023-04-23T04:26:23.889Z,365
2023-04-23T04:27:24.040Z,363
2023-04-23T04:29:24.400Z,354
2023-04-23T04:30:25.626Z,363
2023-04-23T04:31:24.492Z,358
2023-04-23T04:32:23.700Z,355
2023-04-23T04:33:23.727Z,361
2023-04-23T04:34:24.548Z,357
2023-04-23T04:35:23.909Z,365
2023-04-23T04:36:23.870Z,368
2023-04-23T04:37:23.796Z,365
2023-04-23T04:38:24.452Z,360
2023-04-23T04:39:24.121Z,355
2023-04-23T04:40:23.994Z,360
2023-04-23T04:41:23.667Z,355
2023-04-23T04:42:24.624Z,350
2023-04-23T04:43:24.518Z,358
2023-04-23T04:44:24.075Z,354
2023-04-23T04:45:24.249Z,348
2023-04-23T04:46:23.981Z,346
2023-04-23T04:47:23.903Z,343
2023-04-23T04:48:23.569Z,345
2023-04-23T04:49:23.905Z,354
2023-04-23T04:50:24.528Z,359
2023-04-23T04:51:24.033Z,351
2023-04-23T04:52:24.589Z,358
2023-04-23T04:53:23.933Z,352
2023-04-23T04:54:23.978Z,358
2023-04-23T04:55:24.492Z,360
2023-04-23T04:56:24.758Z,355
2023-04-23T04:57:23.503Z,352
2023-04-23T04:59:24.009Z,348
2023-04-23T05:00:25.105Z,354
2023-04-23T05:01:24.182Z,357
2023-04-23T05:02:24.347Z,356
2023-04-23T05:03:24.559Z,353
2023-04-23T05:04:23.807Z,346
2023-04-23T05:05:24.177Z,354
2023-04-23T05:06:24.139Z,353
2023-04-23T05:07:24.415Z,355
2023-04-23T05:08:24.856Z,360
2023-04-23T05:09:23.825Z,356
2023-04-23T05:10:24.112Z,364
2023-04-23T05:12:24.079Z,365
2023-04-23T05:13:24.374Z,362
2023-04-23T05:14:24.117Z,366
2023-04-23T05:15:24.302Z,376
2023-04-23T05:16:24.391Z,371
2023-04-23T05:17:24.392Z,368
2023-04-23T05:18:24.216Z,370
2023-04-23T05:19:24.230Z,369
2023-04-23T05:20:24.096Z,367
2023-04-23T05:21:23.925Z,369
2023-04-23T05:22:23.816Z,378
2023-04-23T05:23:24.191Z,371
2023-04-23T05:24:24.031Z,364
2023-04-23T05:25:24.402Z,366
2023-04-23T05:26:24.414Z,368
2023-04-23T05:27:23.944Z,359
2023-04-23T05:28:29.182Z,364
2023-04-23T05:29:25.082Z,367
2023-04-23T05:30:29.677Z,364
2023-04-23T05:31:24.290Z,361
2023-04-23T05:32:24.203Z,363
2023-04-23T05:33:24.973Z,366
2023-04-23T05:34:23.930Z,364
2023-04-23T05:35:24.082Z,357
2023-04-23T05:36:23.824Z,352
2023-04-23T05:37:23.767Z,353
2023-04-23T05:38:24.522Z,350
2023-04-23T05:39:24.301Z,366
2023-04-23T05:40:24.541Z,375
2023-04-23T05:41:24.357Z,370
2023-04-23T05:42:24.021Z,362
2023-04-23T05:43:23.757Z,364
2023-04-23T05:44:24.098Z,363
2023-04-23T05:45:23.925Z,365
2023-04-23T05:46:24.057Z,352
2023-04-23T05:47:23.981Z,347
2023-04-23T05:48:23.981Z,361
2023-04-23T05:49:23.858Z,363
2023-04-23T05:50:24.718Z,353
2023-04-23T05:51:24.407Z,341
2023-04-23T05:52:24.445Z,344
2023-04-23T05:53:24.103Z,360
2023-04-23T05:54:23.913Z,365
2023-04-23T05:55:24.042Z,352
2023-04-23T05:56:23.696Z,362
2023-04-23T05:58:43.330Z,368
2023-04-23T05:59:24.231Z,366
2023-04-23T06:00:25.399Z,365
2023-04-23T06:01:24.238Z,356
2023-04-23T06:02:25.086Z,357
2023-04-23T06:03:24.714Z,358
2023-04-23T06:04:24.468Z,351
2023-04-23T06:05:24.366Z,349
2023-04-23T06:06:24.334Z,363
2023-04-23T06:07:24.298Z,364
2023-04-23T06:11:24.383Z,373
2023-04-23T06:12:23.736Z,362
2023-04-23T06:13:23.954Z,355
2023-04-23T06:14:23.740Z,356
2023-04-23T06:15:23.881Z,362
2023-04-23T06:16:24.464Z,357
2023-04-23T06:17:24.199Z,355
2023-04-23T06:18:24.429Z,356
2023-04-23T06:19:24.698Z,355
2023-04-23T06:20:24.256Z,358
2023-04-23T06:21:24.359Z,350
2023-04-23T06:22:24.556Z,354
2023-04-23T06:24:24.217Z,351
2023-04-23T06:25:24.418Z,346
2023-04-23T06:26:24.410Z,354
2023-04-23T06:27:24.484Z,344
2023-04-23T06:28:23.937Z,349
2023-04-23T06:29:24.198Z,353
2023-04-23T06:30:24.332Z,356
2023-04-23T06:31:24.253Z,347
2023-04-23T06:32:24.411Z,351
2023-04-23T06:33:23.900Z,357
2023-04-23T06:34:24.168Z,356
2023-04-23T06:35:24.581Z,358
2023-04-23T06:36:24.522Z,353
2023-04-23T06:37:24.365Z,359
2023-04-23T06:38:24.339Z,362
2023-04-23T06:39:24.128Z,357
2023-04-23T06:40:24.157Z,356
2023-04-23T06:42:23.992Z,355
2023-04-23T06:43:24.565Z,353
2023-04-23T06:44:24.321Z,365
2023-04-23T06:45:23.953Z,358
2023-04-23T06:46:24.102Z,355
2023-04-23T06:47:24.311Z,350
2023-04-23T06:48:24.350Z,352
2023-04-23T06:49:24.365Z,353
2023-04-23T06:50:24.329Z,352
2023-04-23T06:52:24.094Z,351
2023-04-23T06:53:24.040Z,347
2023-04-23T06:54:24.372Z,345
2023-04-23T06:55:24.479Z,348
2023-04-23T06:56:24.086Z,346
2023-04-23T06:57:24.167Z,358
2023-04-23T06:58:24.402Z,353
2023-04-23T06:59:24.430Z,347
2023-04-23T07:00:25.252Z,355
2023-04-23T07:02:24.759Z,352
2023-04-23T07:03:24.526Z,336
2023-04-23T07:04:24.705Z,343
2023-04-23T07:05:23.990Z,351
2023-04-23T07:06:23.956Z,347
2023-04-23T07:07:23.948Z,342
2023-04-23T07:08:24.124Z,359
2023-04-23T07:09:24.030Z,356
2023-04-23T07:10:24.490Z,355
2023-04-23T07:12:23.976Z,346
2023-04-23T07:13:24.346Z,354
2023-04-23T07:14:24.368Z,350
2023-04-23T07:15:24.170Z,352
2023-04-23T07:17:23.978Z,341
2023-04-23T07:18:24.362Z,326
2023-04-23T07:19:23.767Z,336
2023-04-23T07:20:24.495Z,346
2023-04-23T07:21:24.211Z,340
2023-04-23T07:22:24.214Z,337
2023-04-23T07:23:23.940Z,332
2023-04-23T07:24:24.066Z,335
2023-04-23T07:25:24.392Z,340
2023-04-23T07:26:23.907Z,337
2023-04-23T07:27:24.800Z,335
2023-04-23T07:28:23.918Z,334
2023-04-23T07:29:24.340Z,342
2023-04-23T07:31:24.283Z,339
2023-04-23T07:33:24.360Z,334
2023-04-23T07:34:24.368Z,330
2023-04-23T07:35:23.846Z,337
2023-04-23T07:36:24.661Z,345
2023-04-23T07:37:23.932Z,347
2023-04-23T07:38:23.946Z,353
2023-04-23T07:39:23.842Z,342
2023-04-23T07:40:24.682Z,331
2023-04-23T07:41:23.713Z,335
2023-04-23T07:42:24.536Z,336
2023-04-23T07:43:24.190Z,338
2023-04-23T07:44:24.178Z,342
2023-04-23T07:45:24.491Z,338
2023-04-23T07:46:24.247Z,341
2023-04-23T07:48:24.389Z,332
2023-04-23T07:49:24.008Z,335
2023-04-23T07:50:24.558Z,340
2023-04-23T07:51:24.414Z,344
2023-04-23T07:52:24.498Z,351
2023-04-23T07:53:24.537Z,342
2023-04-23T07:54:25.640Z,337
2023-04-23T07:55:24.115Z,346
2023-04-23T07:56:24.256Z,345
2023-04-23T07:57:32.111Z,340
2023-04-23T07:58:24.082Z,339
2023-04-23T07:59:23.892Z,348
2023-04-23T08:00:24.850Z,344
2023-04-23T08:01:23.920Z,340
2023-04-23T08:02:24.124Z,329
2023-04-23T08:03:24.487Z,326
2023-04-23T08:04:24.557Z,331
2023-04-23T08:05:23.948Z,335
2023-04-23T08:06:23.986Z,340
2023-04-23T08:07:23.650Z,347
2023-04-23T08:08:23.965Z,352
2023-04-23T08:09:23.639Z,347
2023-04-23T08:10:24.319Z,344
2023-04-23T08:11:24.253Z,345
2023-04-23T08:12:24.096Z,353
2023-04-23T08:13:24.106Z,348
2023-04-23T08:14:24.074Z,335
2023-04-23T08:15:24.133Z,341
2023-04-23T08:16:23.771Z,340
2023-04-23T08:17:23.934Z,332
2023-04-23T08:18:23.802Z,334
2023-04-23T08:19:24.447Z,335
2023-04-23T08:20:24.177Z,346
2023-04-23T08:21:24.583Z,334
2023-04-23T08:22:24.844Z,330
2023-04-23T08:23:23.528Z,329
2023-04-23T08:25:24.253Z,335
2023-04-23T08:26:24.427Z,334
2023-04-23T08:27:24.466Z,336
2023-04-23T08:28:24.275Z,351
2023-04-23T08:29:24.103Z,339
2023-04-23T08:30:24.341Z,330
2023-04-23T08:31:26.898Z,329
2023-04-23T08:32:24.169Z,333
2023-04-23T08:33:24.295Z,348
2023-04-23T08:34:24.532Z,344
2023-04-23T08:35:23.801Z,337
2023-04-23T08:36:24.086Z,327
2023-04-23T08:37:30.754Z,331
2023-04-23T08:38:24.486Z,340
2023-04-23T08:39:24.381Z,344
2023-04-23T08:40:24.465Z,335
2023-04-23T08:41:24.163Z,326
2023-04-23T08:42:24.295Z,328
2023-04-23T08:43:24.077Z,335
2023-04-23T08:44:24.059Z,347
2023-04-23T08:46:24.468Z,344
2023-04-23T08:47:24.572Z,342
2023-04-23T08:48:24.399Z,346
2023-04-23T08:49:23.663Z,332
2023-04-23T08:50:24.170Z,330
2023-04-23T08:51:23.906Z,322
2023-04-23T08:52:24.398Z,330
2023-04-23T08:53:24.272Z,339
2023-04-23T08:54:24.016Z,336
2023-04-23T08:55:23.918Z,346
2023-04-23T08:56:23.997Z,336
2023-04-23T08:57:23.982Z,333
2023-04-23T08:58:24.201Z,325
2023-04-23T08:59:24.079Z,329
2023-04-23T09:00:24.998Z,332
2023-04-23T09:01:24.106Z,344
2023-04-23T09:02:24.307Z,349
2023-04-23T09:03:24.442Z,344
2023-04-23T09:04:24.220Z,331
2023-04-23T09:06:24.434Z,336
2023-04-23T09:07:24.597Z,338
2023-04-23T09:08:24.353Z,329
2023-04-23T09:09:24.064Z,328
2023-04-23T09:10:24.768Z,341
2023-04-23T09:11:24.168Z,348
2023-04-23T09:12:24.708Z,349
2023-04-23T09:13:24.538Z,345
2023-04-23T09:14:24.785Z,341
2023-04-23T09:15:25.300Z,335
2023-04-23T09:16:24.449Z,337
2023-04-23T09:17:24.607Z,331
2023-04-23T09:18:23.973Z,326
2023-04-23T09:19:24.004Z,334
2023-04-23T09:20:24.877Z,330
2023-04-23T09:21:23.823Z,338
2023-04-23T09:23:24.219Z,337
2023-04-23T09:24:24.173Z,345
2023-04-23T09:25:24.365Z,339
2023-04-23T09:26:24.004Z,328
2023-04-23T09:27:23.941Z,331
2023-04-23T09:28:24.043Z,341
2023-04-23T09:29:24.129Z,346
2023-04-23T09:30:24.545Z,351
2023-04-23T09:31:23.846Z,354
2023-04-23T09:32:23.946Z,349
2023-04-23T09:33:24.093Z,333
2023-04-23T09:34:24.133Z,321
2023-04-23T09:35:23.961Z,325
2023-04-23T09:36:24.476Z,329
2023-04-23T09:37:24.420Z,341
2023-04-23T09:38:24.524Z,346
2023-04-23T09:39:24.522Z,341
2023-04-23T09:40:24.514Z,339
2023-04-23T09:41:24.303Z,343
2023-04-23T09:42:24.635Z,329
2023-04-23T09:43:24.110Z,328
2023-04-23T09:44:24.031Z,337
2023-04-23T09:45:24.059Z,336
2023-04-23T09:46:24.140Z,338
2023-04-23T09:47:25.265Z,339
2023-04-23T09:48:24.545Z,329
2023-04-23T09:49:23.973Z,334
2023-04-23T09:50:24.570Z,338
2023-04-23T09:51:24.665Z,335
2023-04-23T09:52:24.340Z,340
2023-04-23T09:53:24.604Z,343
2023-04-23T09:54:23.985Z,340
2023-04-23T09:55:24.474Z,332
2023-04-23T09:56:24.176Z,328
2023-04-23T09:57:23.990Z,333
2023-04-23T09:58:24.116Z,324
2023-04-23T09:59:35.533Z,321
2023-04-23T10:00:24.801Z,336
2023-04-23T10:02:28.710Z,335
2023-04-23T10:03:24.293Z,333
2023-04-23T10:04:24.271Z,323
2023-04-23T10:05:27.649Z,322
2023-04-23T10:06:40.796Z,314
2023-04-23T10:07:23.699Z,310
2023-04-23T10:08:24.392Z,332
2023-04-23T10:09:24.069Z,330
2023-04-23T10:10:24.678Z,333
2023-04-23T10:11:23.811Z,338
2023-04-23T10:13:24.323Z,327
2023-04-23T10:14:29.173Z,332
2023-04-23T10:15:24.672Z,340
2023-04-23T10:16:26.877Z,333
2023-04-23T10:17:24.266Z,327
2023-04-23T10:18:24.307Z,339
2023-04-23T10:21:24.512Z,350
2023-04-23T10:22:24.261Z,349
2023-04-23T10:23:24.186Z,339
2023-04-23T10:24:23.896Z,335
2023-04-23T10:25:24.232Z,359
2023-04-23T10:26:24.215Z,350
2023-04-23T10:27:33.447Z,330
2023-04-23T10:30:24.124Z,337
2023-04-23T10:31:24.325Z,333
2023-04-23T10:32:24.363Z,329
2023-04-23T10:34:24.537Z,348
2023-04-23T10:35:24.550Z,342
2023-04-23T10:36:23.894Z,339
2023-04-23T10:37:24.540Z,336
2023-04-23T10:38:24.763Z,338
2023-04-23T10:40:24.488Z,339
2023-04-23T10:41:24.377Z,343
2023-04-23T10:42:24.702Z,345
2023-04-23T10:43:24.731Z,339
2023-04-23T10:44:45.054Z,342
2023-04-23T10:45:28.670Z,332
2023-04-23T10:46:42.808Z,328
2023-04-23T10:47:24.102Z,332
2023-04-23T10:48:24.206Z,331
2023-04-23T10:49:24.590Z,325
2023-04-23T10:51:02.341Z,338
2023-04-23T10:52:02.606Z,334
2023-04-23T10:52:31.288Z,321
2023-04-23T10:53:24.398Z,322
2023-04-23T10:54:24.586Z,345
2023-04-23T10:55:23.781Z,344
2023-04-23T10:56:24.466Z,339
2023-04-23T10:57:24.415Z,340
2023-04-23T10:58:24.545Z,329
2023-04-23T10:59:24.334Z,332
2023-04-23T11:00:25.081Z,338
2023-04-23T11:01:24.348Z,340
2023-04-23T11:02:24.929Z,328
2023-04-23T11:03:24.260Z,338
2023-04-23T11:05:28.681Z,333
2023-04-23T11:06:24.074Z,339
2023-04-23T11:07:23.978Z,341
2023-04-23T11:08:24.157Z,345
2023-04-23T11:09:24.131Z,343
2023-04-23T11:10:24.537Z,328
2023-04-23T11:11:24.328Z,336
2023-04-23T11:12:24.547Z,341
2023-04-23T11:13:24.524Z,332
2023-04-23T11:14:24.056Z,323
2023-04-23T11:15:24.455Z,335
2023-04-23T11:16:24.352Z,341
2023-04-23T11:18:23.820Z,338
2023-04-23T11:19:24.562Z,331
2023-04-23T11:20:24.477Z,333
2023-04-23T11:21:24.524Z,326
2023-04-23T11:22:24.359Z,334
2023-04-23T11:23:24.541Z,330
2023-04-23T11:24:24.099Z,315
2023-04-23T11:25:24.947Z,321
2023-04-23T11:26:24.160Z,320
2023-04-23T11:27:24.766Z,324
2023-04-23T11:28:24.058Z,330
2023-04-23T11:29:24.267Z,327
2023-04-23T11:30:24.646Z,332
2023-04-23T11:31:24.286Z,333
2023-04-23T11:32:23.796Z,326
2023-04-23T11:33:24.212Z,331
2023-04-23T11:34:24.281Z,334
2023-04-23T11:35:24.694Z,333
2023-04-23T11:36:24.635Z,332
2023-04-23T11:37:23.957Z,336
2023-04-23T11:38:24.036Z,327
2023-04-23T11:39:24.535Z,333
2023-04-23T11:40:24.524Z,336
2023-04-23T11:41:24.456Z,332
2023-04-23T11:42:24.619Z,334
2023-04-23T11:43:24.497Z,341
2023-04-23T11:44:24.910Z,333
2023-04-23T11:45:24.270Z,323
2023-04-23T11:46:24.108Z,327
2023-04-23T11:47:24.089Z,329
2023-04-23T11:48:24.004Z,333
2023-04-23T11:49:24.296Z,344
2023-04-23T11:50:24.873Z,337
2023-04-23T11:51:24.357Z,331
2023-04-23T11:52:24.667Z,342
2023-04-23T11:54:23.986Z,335
2023-04-23T11:55:23.955Z,329
2023-04-23T11:57:24.457Z,324
2023-04-23T11:58:24.923Z,335
2023-04-23T11:59:24.371Z,332
2023-04-23T12:01:24.091Z,330
2023-04-23T12:02:24.178Z,327
2023-04-23T12:03:24.857Z,322
2023-04-23T12:04:24.433Z,327
2023-04-23T12:05:24.424Z,332
2023-04-23T12:06:24.380Z,328
2023-04-23T12:08:24.461Z,325
2023-04-23T12:09:24.479Z,321
2023-04-23T12:11:24.644Z,316
2023-04-23T12:12:24.496Z,320
2023-04-23T12:13:24.576Z,323
2023-04-23T12:14:24.977Z,337
2023-04-23T12:15:24.669Z,341
2023-04-23T12:16:24.353Z,340
2023-04-23T12:17:24.514Z,343
2023-04-23T12:18:24.142Z,333
2023-04-23T12:19:24.277Z,339
2023-04-23T12:20:24.728Z,328
2023-04-23T12:21:26.188Z,326
2023-04-23T12:22:24.540Z,327
2023-04-23T12:23:24.346Z,330
2023-04-23T12:24:24.434Z,331
2023-04-23T12:25:24.448Z,337
2023-04-23T12:26:24.493Z,345
2023-04-23T12:27:24.740Z,349
2023-04-23T12:29:24.195Z,332
2023-04-23T12:30:24.030Z,333
2023-04-23T12:31:23.785Z,337
2023-04-23T12:32:24.074Z,335
2023-04-23T12:33:23.968Z,339
2023-04-23T12:35:25.719Z,337
2023-04-23T12:36:24.394Z,336
2023-04-23T12:37:24.201Z,340
2023-04-23T12:38:24.232Z,336
2023-04-23T12:39:24.260Z,331
2023-04-23T12:40:24.448Z,333
2023-04-23T12:41:24.066Z,330
2023-04-23T12:42:23.928Z,343
2023-04-23T12:43:23.771Z,348
2023-04-23T12:44:24.422Z,345
2023-04-23T12:45:24.315Z,341
2023-04-23T12:46:23.998Z,340
2023-04-23T12:47:24.187Z,337
2023-04-23T12:48:24.297Z,342
2023-04-23T12:49:24.310Z,336
2023-04-23T12:50:24.427Z,333
2023-04-23T12:51:24.223Z,335
2023-04-23T12:52:24.046Z,330
2023-04-23T12:53:24.838Z,337
2023-04-23T12:55:24.389Z,327
2023-04-23T12:56:24.329Z,333
2023-04-23T12:57:24.733Z,343
2023-04-23T12:58:24.190Z,345
2023-04-23T12:59:24.397Z,350
2023-04-23T13:00:25.768Z,344
2023-04-23T13:01:24.002Z,333
2023-04-23T13:04:24.495Z,336
2023-04-23T13:05:24.021Z,339
2023-04-23T13:06:23.975Z,333
2023-04-23T13:07:24.465Z,321
2023-04-23T13:08:24.996Z,329
2023-04-23T13:09:26.725Z,330
2023-04-23T13:10:24.189Z,329
2023-04-23T13:12:24.502Z,332
2023-04-23T13:13:24.826Z,324
2023-04-23T13:14:24.928Z,325
2023-04-23T13:15:26.849Z,343
2023-04-23T13:16:24.947Z,346
2023-04-23T13:17:24.382Z,345
2023-04-23T13:18:24.587Z,330
2023-04-23T13:19:24.759Z,329
2023-04-23T13:20:24.481Z,323
2023-04-23T13:21:25.628Z,326
2023-04-23T13:22:24.555Z,340
2023-04-23T13:24:24.777Z,334
2023-04-23T13:25:24.790Z,333
2023-04-23T13:26:24.054Z,323
2023-04-23T13:27:24.197Z,319
2023-04-23T13:28:24.605Z,328
2023-04-23T13:29:25.078Z,334
2023-04-23T13:30:25.095Z,338
2023-04-23T13:31:23.876Z,324
2023-04-23T13:32:24.220Z,322
2023-04-23T13:33:24.466Z,330
2023-04-23T13:34:24.451Z,335
2023-04-23T13:36:24.400Z,341
2023-04-23T13:38:25.128Z,339
2023-04-23T13:39:23.743Z,333
2023-04-23T13:40:24.485Z,334
2023-04-23T13:41:24.151Z,338
2023-04-23T13:42:24.029Z,340
2023-04-23T13:43:23.879Z,331
2023-04-23T13:44:24.738Z,336
2023-04-23T13:45:24.661Z,340
2023-04-23T13:46:24.501Z,335
2023-04-23T13:47:24.480Z,329
2023-04-23T13:48:24.498Z,333
2023-04-23T13:49:24.051Z,344
2023-04-23T13:50:24.515Z,338
2023-04-23T13:51:34.732Z,331
2023-04-23T13:53:23.952Z,332
2023-04-23T13:54:24.464Z,335
2023-04-23T13:56:24.173Z,334
2023-04-23T13:57:24.390Z,329
2023-04-23T13:58:24.112Z,326
2023-04-23T13:59:24.476Z,328
2023-04-23T14:00:24.675Z,332
2023-04-23T14:01:24.448Z,334
2023-04-23T14:02:24.358Z,332
2023-04-23T14:03:24.519Z,340
2023-04-23T14:04:24.503Z,346
2023-04-23T14:05:24.501Z,334
2023-04-23T14:06:24.027Z,349
2023-04-23T14:07:24.160Z,344
2023-04-23T14:08:24.054Z,332
2023-04-23T14:09:24.111Z,329
2023-04-23T14:11:23.961Z,330
2023-04-23T14:12:24.125Z,329
2023-04-23T14:13:23.995Z,332
2023-04-23T14:14:24.264Z,343
2023-04-23T14:15:24.521Z,347
2023-04-23T14:16:24.914Z,332
2023-04-23T14:17:24.320Z,321
2023-04-23T14:18:24.462Z,320
2023-04-23T14:19:24.670Z,334
2023-04-23T14:21:23.967Z,324
2023-04-23T14:22:24.218Z,326
2023-04-23T14:23:24.321Z,325
2023-04-23T14:24:24.389Z,331
2023-04-23T14:25:24.286Z,338
2023-04-23T14:26:26.248Z,337
2023-04-23T14:27:24.394Z,342
2023-04-23T14:28:24.282Z,343
2023-04-23T14:29:24.160Z,341
2023-04-23T14:30:24.472Z,349
2023-04-23T14:31:24.474Z,353
2023-04-23T14:33:23.753Z,351
2023-04-23T14:34:24.312Z,350
2023-04-23T14:35:32.520Z,348
2023-04-23T14:36:24.098Z,344
2023-04-23T14:37:23.979Z,346
2023-04-23T14:38:24.077Z,343
2023-04-23T14:39:24.115Z,347
2023-04-23T14:40:24.478Z,346
2023-04-23T14:41:24.034Z,337
2023-04-23T14:42:24.200Z,326
2023-04-23T14:43:23.942Z,325
2023-04-23T14:44:24.748Z,328
2023-04-23T14:45:24.199Z,326
2023-04-23T14:46:24.033Z,329
2023-04-23T14:47:24.031Z,334
2023-04-23T14:48:24.461Z,329
2023-04-23T14:49:24.501Z,339
2023-04-23T14:50:25.590Z,337
2023-04-23T14:51:24.744Z,343
2023-04-23T14:52:24.708Z,341
2023-04-23T14:53:24.142Z,338
2023-04-23T14:54:24.301Z,339
2023-04-23T14:55:24.348Z,340
2023-04-23T14:56:24.262Z,329